createdAt,value
2022-08-23T00:00:16.269Z,16.07
2022-08-23T00:02:45.121Z,16.04
2022-08-23T00:05:18.155Z,16.10
2022-08-23T00:07:45.304Z,16.11
2022-08-23T00:10:20.107Z,16.14
2022-08-23T00:12:47.352Z,16.04
2022-08-23T00:15:22.145Z,16.15
2022-08-23T00:17:48.808Z,16.17
2022-08-23T00:20:24.446Z,16.30
2022-08-23T00:22:51.323Z,16.33
2022-08-23T00:25:32.111Z,16.29
2022-08-23T00:28:05.184Z,16.34
2022-08-23T00:30:41.591Z,16.29
2022-08-23T00:33:15.276Z,16.32
2022-08-23T00:35:49.185Z,16.30
2022-08-23T00:38:34.157Z,16.27
2022-08-23T00:41:09.141Z,16.36
2022-08-23T00:43:55.864Z,16.32
2022-08-23T00:47:05.125Z,16.39
2022-08-23T00:49:33.867Z,16.34
2022-08-23T00:52:10.276Z,16.20
2022-08-23T00:54:37.917Z,16.15
2022-08-23T00:57:12.253Z,16.12
2022-08-23T00:59:39.188Z,16.08
2022-08-23T01:02:13.288Z,16.12
2022-08-23T01:04:44.467Z,16.16
2022-08-23T01:07:17.154Z,16.19
2022-08-23T01:09:44.907Z,16.20
2022-08-23T01:12:33.045Z,16.15
2022-08-23T01:15:10.112Z,16.18
2022-08-23T01:18:10.153Z,16.11
2022-08-23T01:20:54.271Z,16.10
2022-08-23T01:23:47.279Z,16.18
2022-08-23T01:26:27.127Z,16.10
2022-08-23T01:29:01.111Z,16.07
2022-08-23T01:31:28.959Z,16.03
2022-08-23T01:34:06.109Z,16.14
2022-08-23T01:36:39.132Z,16.16
2022-08-23T01:39:06.150Z,16.15
2022-08-23T01:41:39.119Z,16.17
2022-08-23T01:44:06.593Z,16.15
2022-08-23T01:46:40.085Z,16.06
2022-08-23T01:49:08.467Z,16.05
2022-08-23T01:51:42.108Z,15.87
2022-08-23T01:54:08.904Z,15.96
2022-08-23T01:56:42.061Z,16.01
2022-08-23T01:59:09.836Z,16.02
2022-08-23T02:01:43.111Z,15.91
2022-08-23T02:04:09.819Z,15.91
2022-08-23T02:06:43.082Z,15.88
2022-08-23T02:09:17.504Z,15.91
2022-08-23T02:11:52.100Z,15.92
2022-08-23T02:14:33.611Z,15.87
2022-08-23T02:17:13.077Z,15.72
2022-08-23T02:19:40.609Z,15.65
2022-08-23T02:22:14.053Z,15.71
2022-08-23T02:24:52.205Z,15.57
2022-08-23T02:27:32.043Z,15.52
2022-08-23T02:29:58.820Z,15.54
2022-08-23T02:32:33.372Z,15.43
2022-08-23T02:35:04.993Z,15.38
2022-08-23T02:37:39.074Z,15.32
2022-08-23T02:40:06.523Z,15.29
2022-08-23T02:42:40.237Z,15.32
2022-08-23T02:45:15.115Z,15.26
2022-08-23T02:47:41.767Z,15.29
2022-08-23T02:50:15.256Z,15.27
2022-08-23T02:52:50.065Z,15.21
2022-08-23T02:55:17.276Z,15.19
2022-08-23T02:57:44.023Z,15.16
2022-08-23T03:00:18.039Z,15.21
2022-08-23T03:02:52.065Z,15.18
2022-08-23T03:05:18.732Z,15.16
2022-08-23T03:07:52.054Z,15.13
2022-08-23T03:10:18.669Z,15.12
2022-08-23T03:12:52.056Z,15.19
2022-08-23T03:15:18.684Z,15.20
2022-08-23T03:17:52.220Z,15.23
2022-08-23T03:20:18.868Z,15.29
2022-08-23T03:22:54.362Z,15.25
2022-08-23T03:25:28.552Z,15.18
2022-08-23T03:28:14.027Z,15.05
2022-08-23T03:30:47.057Z,15.17
2022-08-23T03:33:20.101Z,15.11
2022-08-23T03:35:46.777Z,15.06
2022-08-23T03:38:21.051Z,15.11
2022-08-23T03:40:47.549Z,15.13
2022-08-23T03:43:21.054Z,15.13
2022-08-23T03:45:54.026Z,15.14
2022-08-23T03:48:27.117Z,15.26
2022-08-23T03:51:00.228Z,15.36
2022-08-23T03:53:26.887Z,15.39
2022-08-23T03:56:01.049Z,15.40
2022-08-23T03:58:36.054Z,15.38
2022-08-23T04:01:09.244Z,15.32
2022-08-23T04:03:35.891Z,15.25
2022-08-23T04:06:09.028Z,15.23
2022-08-23T04:08:42.210Z,15.18
2022-08-23T04:11:09.332Z,15.11
2022-08-23T04:13:43.017Z,15.07
2022-08-23T04:16:16.047Z,15.04
2022-08-23T04:18:49.079Z,15.01
2022-08-23T04:21:29.083Z,14.97
2022-08-23T04:23:55.670Z,15.02
2022-08-23T04:26:36.038Z,15.04
2022-08-23T04:29:03.334Z,15.13
2022-08-23T04:31:36.415Z,15.13
2022-08-23T04:34:05.415Z,15.06
2022-08-23T04:36:40.065Z,15.11
2022-08-23T04:39:06.672Z,15.02
2022-08-23T04:41:58.204Z,14.99
2022-08-23T04:44:31.043Z,15.01
2022-08-23T04:47:04.064Z,15.00
2022-08-23T04:49:30.637Z,15.00
2022-08-23T04:52:04.011Z,15.01
2022-08-23T04:54:31.457Z,15.05
2022-08-23T04:57:04.042Z,15.09
2022-08-23T04:59:37.060Z,15.17
2022-08-23T05:02:03.866Z,15.23
2022-08-23T05:04:36.999Z,15.22
2022-08-23T05:07:04.112Z,15.24
2022-08-23T05:09:37.204Z,15.30
2022-08-23T05:12:04.222Z,15.40
2022-08-23T05:14:37.034Z,15.43
2022-08-23T05:17:03.789Z,15.43
2022-08-23T05:19:37.520Z,15.51
2022-08-23T05:22:12.235Z,15.56
2022-08-23T05:24:53.104Z,15.57
2022-08-23T05:27:26.352Z,15.58
2022-08-23T05:30:01.106Z,15.57
2022-08-23T05:32:34.195Z,15.64
2022-08-23T05:35:07.081Z,15.58
2022-08-23T05:37:33.804Z,15.58
2022-08-23T05:40:00.656Z,15.45
2022-08-23T05:42:34.025Z,15.41
2022-08-23T05:45:00.585Z,15.34
2022-08-23T05:47:35.023Z,15.21
2022-08-23T05:50:01.905Z,15.26
2022-08-23T05:52:35.049Z,15.41
2022-08-23T05:55:02.817Z,15.37
2022-08-23T05:57:36.012Z,15.38
2022-08-23T06:00:02.901Z,15.41
2022-08-23T06:02:36.043Z,15.35
2022-08-23T06:05:02.685Z,15.27
2022-08-23T06:07:36.009Z,15.39
2022-08-23T06:10:03.250Z,15.23
2022-08-23T06:12:38.037Z,15.18
2022-08-23T06:15:05.094Z,15.19
2022-08-23T06:17:38.093Z,15.18
2022-08-23T06:20:06.372Z,15.24
2022-08-23T06:22:40.094Z,15.32
2022-08-23T06:25:27.008Z,15.32
2022-08-23T06:28:00.151Z,15.47
2022-08-23T06:30:29.505Z,15.52
2022-08-23T06:33:03.022Z,15.64
2022-08-23T06:35:39.080Z,15.54
2022-08-23T06:38:13.013Z,15.59
2022-08-23T06:40:46.024Z,15.63
2022-08-23T06:43:12.584Z,15.62
2022-08-23T06:45:39.199Z,15.53
2022-08-23T06:48:18.660Z,15.50
2022-08-23T06:50:47.876Z,15.54
2022-08-23T06:53:21.014Z,15.47
2022-08-23T06:55:47.646Z,15.47
2022-08-23T06:58:21.030Z,15.46
2022-08-23T07:00:47.599Z,15.61
2022-08-23T07:03:20.999Z,15.71
2022-08-23T07:05:47.532Z,15.58
2022-08-23T07:08:21.005Z,15.56
2022-08-23T07:10:47.709Z,15.52
2022-08-23T07:13:20.988Z,15.57
2022-08-23T07:15:49.993Z,15.58
2022-08-23T07:18:23.169Z,15.59
2022-08-23T07:20:49.703Z,15.55
2022-08-23T07:23:24.018Z,15.52
2022-08-23T07:26:10.999Z,15.52
2022-08-23T07:28:38.867Z,15.52
2022-08-23T07:31:18.004Z,15.62
2022-08-23T07:33:52.004Z,15.66
2022-08-23T07:36:22.203Z,15.62
2022-08-23T07:38:55.985Z,15.54
2022-08-23T07:41:28.860Z,15.58
2022-08-23T07:44:05.017Z,15.54
2022-08-23T07:46:32.997Z,15.50
2022-08-23T07:49:07.006Z,15.49
2022-08-23T07:51:34.486Z,15.37
2022-08-23T07:54:09.002Z,15.38
2022-08-23T07:56:36.056Z,15.35
2022-08-23T07:59:10.037Z,15.38
2022-08-23T08:01:37.036Z,15.44
2022-08-23T08:04:11.007Z,15.36
2022-08-23T08:07:17.225Z,15.36
2022-08-23T08:09:41.752Z,15.31
2022-08-23T08:12:15.151Z,15.31
2022-08-23T08:14:42.503Z,15.13
2022-08-23T08:17:16.135Z,15.14
2022-08-23T08:19:48.984Z,15.13
2022-08-23T08:22:15.621Z,15.17
2022-08-23T08:24:49.005Z,15.22
2022-08-23T08:27:22.224Z,15.24
2022-08-23T08:29:55.008Z,15.30
2022-08-23T08:32:27.997Z,15.34
2022-08-23T08:35:01.008Z,15.32
2022-08-23T08:37:34.994Z,15.20
2022-08-23T08:40:07.990Z,15.24
2022-08-23T08:42:37.915Z,15.29
2022-08-23T08:45:15.999Z,15.29
2022-08-23T08:47:58.069Z,15.24
2022-08-23T08:50:33.995Z,15.19
2022-08-23T08:53:02.056Z,15.14
2022-08-23T08:55:40.984Z,15.19
2022-08-23T08:58:14.699Z,15.21
2022-08-23T09:00:49.169Z,15.10
2022-08-23T09:03:20.504Z,15.02
2022-08-23T09:06:22.969Z,15.07
2022-08-23T09:08:58.308Z,15.00
2022-08-23T09:11:43.049Z,14.87
2022-08-23T09:14:09.537Z,14.96
2022-08-23T09:17:00.007Z,14.96
2022-08-23T09:19:27.023Z,14.95
2022-08-23T09:22:05.003Z,14.91
2022-08-23T09:24:31.653Z,14.88
2022-08-23T09:27:11.995Z,14.88
2022-08-23T09:30:07.989Z,14.83
2022-08-23T09:32:43.161Z,14.85
2022-08-23T09:35:16.100Z,14.90
2022-08-23T09:38:02.077Z,14.87
2022-08-23T09:40:35.604Z,14.89
2022-08-23T09:43:18.034Z,14.99
2022-08-23T09:45:57.040Z,14.97
2022-08-23T09:48:47.962Z,15.12
2022-08-23T09:51:22.514Z,15.10
2022-08-23T09:53:56.981Z,15.12
2022-08-23T09:56:26.387Z,15.13
2022-08-23T09:59:00.998Z,15.19
2022-08-23T10:01:28.959Z,15.14
2022-08-23T10:04:30.170Z,15.14
2022-08-23T10:07:03.962Z,15.12
2022-08-23T10:09:37.960Z,15.14
2022-08-23T10:12:04.684Z,15.12
2022-08-23T10:14:43.279Z,15.15
2022-08-23T10:17:35.123Z,15.23
2022-08-23T10:20:07.964Z,15.26
2022-08-23T10:22:44.495Z,15.36
2022-08-23T10:25:25.976Z,15.41
2022-08-23T10:28:20.500Z,15.49
2022-08-23T10:30:59.965Z,15.47
2022-08-23T10:33:47.949Z,15.54
2022-08-23T10:36:26.963Z,15.66
2022-08-23T10:39:05.142Z,15.65
2022-08-23T10:41:43.982Z,15.65
2022-08-23T10:44:19.944Z,15.61
2022-08-23T10:47:10.694Z,15.72
2022-08-23T10:49:44.953Z,15.76
2022-08-23T10:52:19.053Z,15.73
2022-08-23T10:54:55.965Z,15.81
2022-08-23T10:57:24.072Z,15.96
2022-08-23T10:59:52.632Z,15.92
2022-08-23T11:02:27.032Z,16.01
2022-08-23T11:05:09.041Z,15.94
2022-08-23T11:07:47.961Z,15.95
2022-08-23T11:10:23.983Z,15.91
2022-08-23T11:12:53.594Z,16.04
2022-08-23T11:15:56.008Z,16.00
2022-08-23T11:18:42.050Z,16.01
2022-08-23T11:21:15.177Z,16.01
2022-08-23T11:23:44.175Z,15.96
2022-08-23T11:26:30.027Z,16.00
2022-08-23T11:29:12.473Z,16.00
2022-08-23T11:31:58.033Z,15.95
2022-08-23T11:34:29.691Z,15.88
2022-08-23T11:37:21.968Z,15.92
2022-08-23T11:40:04.019Z,15.99
2022-08-23T11:42:39.896Z,16.01
2022-08-23T11:45:27.949Z,15.94
2022-08-23T11:48:16.442Z,15.99
2022-08-23T11:51:05.035Z,16.04
2022-08-23T11:53:34.636Z,16.02
2022-08-23T11:56:23.100Z,16.05
2022-08-23T11:59:02.569Z,16.13
2022-08-23T12:01:42.985Z,16.12
2022-08-23T12:04:14.613Z,16.12
2022-08-23T12:06:50.828Z,16.12
2022-08-23T12:09:21.205Z,16.15
2022-08-23T12:12:03.950Z,16.09
2022-08-23T12:14:30.558Z,16.16
2022-08-23T12:17:07.956Z,16.13
2022-08-23T12:19:40.493Z,16.22
2022-08-23T12:22:24.133Z,16.19
2022-08-23T12:25:03.001Z,16.23
2022-08-23T12:27:50.103Z,16.27
2022-08-23T12:30:26.944Z,16.32
2022-08-23T12:33:12.496Z,16.39
2022-08-23T12:36:04.004Z,16.41
2022-08-23T12:38:33.409Z,16.36
2022-08-23T12:41:19.940Z,16.37
2022-08-23T12:44:06.133Z,16.46
2022-08-23T12:46:43.995Z,16.46
2022-08-23T12:49:22.044Z,16.47
2022-08-23T12:51:56.090Z,16.44
2022-08-23T12:54:34.256Z,16.49
2022-08-23T12:57:08.029Z,16.47
2022-08-23T12:59:44.003Z,16.51
2022-08-23T13:02:13.271Z,16.51
2022-08-23T13:04:46.974Z,16.51
2022-08-23T13:07:24.137Z,16.49
2022-08-23T13:09:58.919Z,16.53
2022-08-23T13:12:26.054Z,16.44
2022-08-23T13:15:01.145Z,16.47
2022-08-23T13:17:27.965Z,16.53
2022-08-23T13:20:21.800Z,16.54
2022-08-23T13:22:56.619Z,16.51
2022-08-23T13:25:34.928Z,16.50
2022-08-23T13:28:21.795Z,16.52
2022-08-23T13:31:06.016Z,16.59
2022-08-23T13:33:32.869Z,16.61
2022-08-23T13:36:14.007Z,16.58
2022-08-23T13:38:41.932Z,16.51
2022-08-23T13:41:17.111Z,16.55
2022-08-23T13:43:43.706Z,16.52
2022-08-23T13:46:17.951Z,16.50
2022-08-23T13:49:18.044Z,16.46
2022-08-23T13:52:18.325Z,16.53
2022-08-23T13:54:53.259Z,16.51
2022-08-23T13:57:30.058Z,16.57
2022-08-23T13:59:59.181Z,16.59
2022-08-23T14:02:32.911Z,16.63
2022-08-23T14:04:59.490Z,16.63
2022-08-23T14:07:32.910Z,16.61
2022-08-23T14:10:06.916Z,16.63
2022-08-23T14:12:34.153Z,16.67
2022-08-23T14:15:08.915Z,16.67
2022-08-23T14:17:38.966Z,16.71
2022-08-23T14:23:03.647Z,16.71
2022-08-23T14:25:45.753Z,16.69
2022-08-23T14:28:25.909Z,16.67
2022-08-23T14:30:56.893Z,16.67
2022-08-23T14:33:29.911Z,16.68
2022-08-23T14:35:57.303Z,16.71
2022-08-23T14:38:30.896Z,16.81
2022-08-23T14:40:59.101Z,16.78
2022-08-23T14:43:32.966Z,16.82
2022-08-23T14:46:00.979Z,16.83
2022-08-23T14:48:34.916Z,16.82
2022-08-23T14:51:07.889Z,16.78
2022-08-23T14:53:42.905Z,16.84
2022-08-23T14:56:21.190Z,16.82
2022-08-23T14:58:54.909Z,16.88
2022-08-23T15:01:27.933Z,16.90
2022-08-23T15:03:54.634Z,16.94
2022-08-23T15:06:28.969Z,16.98
2022-08-23T15:09:01.902Z,17.07
2022-08-23T15:14:21.424Z,17.11
2022-08-23T15:16:54.953Z,17.15
2022-08-23T15:19:22.250Z,17.14
2022-08-23T15:21:55.058Z,17.14
2022-08-23T15:24:27.886Z,17.16
2022-08-23T15:27:03.493Z,17.15
2022-08-23T15:29:36.886Z,17.16
2022-08-23T15:32:11.016Z,17.17
2022-08-23T15:34:40.112Z,17.18
2022-08-23T15:37:19.894Z,17.21
2022-08-23T15:39:46.548Z,17.22
2022-08-23T15:42:20.529Z,17.24
2022-08-23T15:44:47.861Z,17.27
2022-08-23T15:47:27.062Z,17.30
2022-08-23T15:49:53.739Z,17.26
2022-08-23T15:52:27.976Z,17.25
2022-08-23T15:55:01.870Z,17.24
2022-08-23T15:57:28.664Z,17.25
2022-08-23T16:00:01.914Z,17.25
2022-08-23T16:02:37.195Z,17.20
2022-08-23T16:05:19.136Z,17.17
2022-08-23T16:07:52.951Z,17.15
2022-08-23T16:10:25.902Z,17.12
2022-08-23T16:13:01.049Z,17.16
2022-08-23T16:15:27.733Z,17.15
2022-08-23T16:17:54.331Z,17.16
2022-08-23T16:20:27.867Z,17.17
2022-08-23T16:22:54.905Z,17.18
2022-08-23T16:25:28.084Z,17.15
2022-08-23T16:28:07.881Z,17.18
2022-08-23T16:30:35.236Z,17.16
2022-08-23T16:33:08.055Z,17.16
2022-08-23T16:35:40.891Z,17.17
2022-08-23T16:38:13.984Z,17.19
2022-08-23T16:40:46.879Z,17.20
2022-08-23T16:43:19.903Z,17.21
2022-08-23T16:45:46.611Z,17.27
2022-08-23T16:48:20.096Z,17.24
2022-08-23T16:50:46.801Z,17.23
2022-08-23T16:53:19.894Z,17.24
2022-08-23T16:55:46.475Z,17.24
2022-08-23T16:58:19.907Z,17.27
2022-08-23T17:00:46.797Z,17.28
2022-08-23T17:03:21.877Z,17.28
2022-08-23T17:05:48.568Z,17.20
2022-08-23T17:08:21.863Z,17.17
2022-08-23T17:10:54.906Z,17.18
2022-08-23T17:13:21.575Z,17.20
2022-08-23T17:15:48.182Z,17.21
2022-08-23T17:18:20.883Z,17.26
2022-08-23T17:20:47.484Z,17.24
2022-08-23T17:23:20.883Z,17.24
2022-08-23T17:26:07.881Z,17.25
2022-08-23T17:28:41.061Z,17.27
2022-08-23T17:31:07.593Z,17.27
2022-08-23T17:33:40.949Z,17.26
2022-08-23T17:36:07.969Z,17.29
2022-08-23T17:38:35.556Z,17.31
2022-08-23T17:41:08.868Z,17.30
2022-08-23T17:43:43.897Z,17.29
2022-08-23T17:46:10.608Z,17.28
2022-08-23T17:48:37.220Z,17.31
2022-08-23T17:51:10.884Z,17.27
2022-08-23T17:53:37.445Z,17.25
2022-08-23T17:56:12.334Z,17.27
2022-08-23T17:58:45.866Z,17.28
2022-08-23T18:01:12.670Z,17.22
2022-08-23T18:03:39.373Z,17.21
2022-08-23T18:06:16.687Z,17.25
2022-08-23T18:08:44.559Z,17.26
2022-08-23T18:11:17.874Z,17.27
2022-08-23T18:13:50.873Z,17.24
2022-08-23T18:16:23.887Z,17.23
2022-08-23T18:18:50.766Z,17.21
2022-08-23T18:21:24.023Z,17.20
2022-08-23T18:24:00.878Z,17.22
2022-08-23T18:27:06.967Z,17.25
2022-08-23T18:29:40.869Z,17.20
2022-08-23T18:32:10.683Z,17.22
2022-08-23T18:34:44.047Z,17.22
2022-08-23T18:37:11.323Z,17.22
2022-08-23T18:39:37.856Z,17.21
2022-08-23T18:42:11.865Z,17.24
2022-08-23T18:44:45.847Z,17.25
2022-08-23T18:47:12.676Z,17.25
2022-08-23T18:49:45.860Z,17.27
2022-08-23T18:52:12.849Z,17.26
2022-08-23T18:54:46.103Z,17.26
2022-08-23T18:57:15.962Z,17.26
2022-08-23T18:59:42.985Z,17.22
2022-08-23T19:02:15.933Z,17.26
2022-08-23T19:04:42.921Z,17.25
2022-08-23T19:07:16.052Z,17.26
2022-08-23T19:09:42.637Z,17.30
2022-08-23T19:12:15.870Z,17.34
2022-08-23T19:14:42.455Z,17.36
2022-08-23T19:17:16.025Z,17.37
2022-08-23T19:19:42.654Z,17.36
2022-08-23T19:22:09.199Z,17.36
2022-08-23T19:24:41.883Z,17.40
2022-08-23T19:27:15.215Z,17.45
2022-08-23T19:29:49.895Z,17.40
2022-08-23T19:32:16.549Z,17.38
2022-08-23T19:34:49.846Z,17.35
2022-08-23T19:37:22.610Z,17.32
2022-08-23T19:39:56.114Z,17.30
2022-08-23T19:42:23.566Z,17.29
2022-08-23T19:44:56.940Z,17.29
2022-08-23T19:47:28.624Z,17.28
2022-08-23T19:50:02.833Z,17.26
2022-08-23T19:52:29.689Z,17.24
2022-08-23T19:55:05.605Z,17.24
2022-08-23T19:57:34.432Z,17.24
2022-08-23T20:00:07.861Z,17.22
2022-08-23T20:02:34.531Z,17.22
2022-08-23T20:05:07.839Z,17.21
2022-08-23T20:07:44.927Z,17.20
2022-08-23T20:10:20.019Z,17.22
2022-08-23T20:12:46.675Z,17.22
2022-08-23T20:15:19.867Z,17.20
2022-08-23T20:17:52.847Z,17.22
2022-08-23T20:20:19.684Z,17.24
2022-08-23T20:23:11.996Z,17.20
2022-08-23T20:25:38.487Z,17.20
2022-08-23T20:28:21.194Z,17.19
2022-08-23T20:30:57.308Z,17.19
2022-08-23T20:33:30.842Z,17.19
2022-08-23T20:35:57.677Z,17.24
2022-08-23T20:38:33.671Z,17.29
2022-08-23T20:41:07.019Z,17.32
2022-08-23T20:43:41.865Z,17.30
2022-08-23T20:46:09.178Z,17.31
2022-08-23T20:48:42.839Z,17.34
2022-08-23T20:51:09.484Z,17.36
2022-08-23T20:53:44.851Z,17.31
2022-08-23T20:56:11.516Z,17.27
2022-08-23T20:58:44.849Z,17.25
2022-08-23T21:01:19.899Z,17.25
2022-08-23T21:03:52.880Z,17.30
2022-08-23T21:06:21.162Z,17.27
2022-08-23T21:08:59.830Z,17.25
2022-08-23T21:11:27.485Z,17.25
2022-08-23T21:14:01.807Z,17.30
2022-08-23T21:16:28.357Z,17.27
2022-08-23T21:19:02.839Z,17.27
2022-08-23T21:21:29.679Z,17.28
2022-08-23T21:24:02.875Z,17.25
2022-08-23T21:26:36.119Z,17.22
2022-08-23T21:29:08.842Z,17.22
2022-08-23T21:31:35.871Z,17.21
2022-08-23T21:34:08.819Z,17.19
2022-08-23T21:36:35.528Z,17.18
2022-08-23T21:39:08.883Z,17.20
2022-08-23T21:41:41.876Z,17.18
2022-08-23T21:44:16.829Z,17.16
2022-08-23T21:46:43.696Z,17.15
2022-08-23T21:49:16.908Z,17.18
2022-08-23T21:51:43.771Z,17.17
2022-08-23T21:54:17.872Z,17.18
2022-08-23T21:56:51.847Z,17.18
2022-08-23T21:59:26.809Z,17.20
2022-08-23T22:01:53.432Z,17.18
2022-08-23T22:04:26.864Z,17.15
2022-08-23T22:06:59.994Z,17.13
2022-08-23T22:09:31.261Z,17.11
2022-08-23T22:12:05.815Z,17.09
2022-08-23T22:14:40.012Z,17.09
2022-08-23T22:17:12.825Z,17.09
2022-08-23T22:19:45.805Z,17.11
2022-08-23T22:22:12.452Z,17.12
2022-08-23T22:24:39.117Z,17.12
2022-08-23T22:27:11.866Z,17.13
2022-08-23T22:29:45.290Z,17.15
2022-08-23T22:32:19.808Z,17.16
2022-08-23T22:34:53.833Z,17.16
2022-08-23T22:37:20.422Z,17.15
2022-08-23T22:39:53.816Z,17.17
2022-08-23T22:42:20.455Z,17.16
2022-08-23T22:44:53.825Z,17.17
2022-08-23T22:47:20.427Z,17.18
2022-08-23T22:49:53.809Z,17.18
2022-08-23T22:52:26.796Z,17.17
2022-08-23T22:54:53.295Z,17.17
2022-08-23T22:57:26.822Z,17.18
2022-08-23T22:59:53.379Z,17.18
2022-08-23T23:02:27.901Z,17.18
2022-08-23T23:04:54.476Z,17.16
2022-08-23T23:07:48.081Z,17.16
2022-08-23T23:10:15.524Z,17.15
2022-08-23T23:12:48.893Z,17.17
2022-08-23T23:15:15.524Z,17.18
2022-08-23T23:17:48.833Z,17.17
2022-08-23T23:20:34.240Z,17.21
2022-08-23T23:23:07.881Z,17.18
2022-08-23T23:25:34.929Z,17.16
2022-08-23T23:28:14.841Z,17.16
2022-08-23T23:30:50.546Z,17.14
2022-08-23T23:33:23.829Z,17.12
2022-08-23T23:35:57.961Z,17.14
2022-08-23T23:38:30.796Z,17.17
2022-08-23T23:41:03.818Z,17.18
2022-08-23T23:43:30.366Z,17.19
2022-08-23T23:46:03.853Z,17.19
2022-08-23T23:48:31.132Z,17.18
2022-08-23T23:51:03.786Z,17.19
2022-08-23T23:53:30.645Z,17.17
2022-08-23T23:56:07.786Z,17.21
2022-08-23T23:58:37.278Z,17.24
